createdAt,value
2019-05-06T00:03:11.488Z,3.97
2019-05-06T00:08:15.011Z,3.53
2019-05-06T00:13:18.479Z,3.80
2019-05-06T00:18:24.465Z,4.83
2019-05-06T00:23:32.353Z,3.70
2019-05-06T00:28:44.639Z,3.57
2019-05-06T00:33:47.324Z,3.97
2019-05-06T00:38:53.936Z,3.87
2019-05-06T00:43:57.258Z,3.63
2019-05-06T00:49:00.107Z,3.80
2019-05-06T00:54:10.046Z,4.00
2019-05-06T00:59:14.359Z,3.70
2019-05-06T01:04:16.933Z,4.57
2019-05-06T01:09:21.197Z,3.73
2019-05-06T01:14:30.566Z,3.80
2019-05-06T01:19:34.418Z,5.27
2019-05-06T01:24:37.241Z,5.00
2019-05-06T01:29:40.549Z,4.33
2019-05-06T01:34:44.650Z,5.27
2019-05-06T01:40:03.948Z,5.60
2019-05-06T01:45:07.777Z,5.17
2019-05-06T01:50:11.404Z,4.20
2019-05-06T01:55:15.422Z,4.60
2019-05-06T02:00:18.957Z,4.20
2019-05-06T02:05:24.127Z,5.10
2019-05-06T02:10:27.290Z,3.70
2019-05-06T02:15:30.536Z,5.30
2019-05-06T02:20:35.084Z,4.07
2019-05-06T02:25:42.075Z,4.97
2019-05-06T02:30:54.706Z,3.80
2019-05-06T02:36:14.914Z,4.33
2019-05-06T02:41:17.306Z,3.83
2019-05-06T02:46:20.213Z,3.87
2019-05-06T02:51:26.694Z,4.83
2019-05-06T02:56:29.597Z,3.77
2019-05-06T03:01:34.022Z,3.90
2019-05-06T03:06:37.790Z,3.53
2019-05-06T03:11:43.619Z,4.13
2019-05-06T03:16:45.477Z,4.13
2019-05-06T03:22:13.322Z,4.43
2019-05-06T03:27:16.089Z,4.50
2019-05-06T03:32:24.796Z,5.33
2019-05-06T03:37:24.363Z,5.50
2019-05-06T03:42:27.220Z,5.00
2019-05-06T03:47:36.957Z,4.63
2019-05-06T03:52:39.478Z,5.70
2019-05-06T03:57:43.108Z,5.60
2019-05-06T04:02:46.252Z,5.43
2019-05-06T04:07:52.775Z,6.20
2019-05-06T04:12:56.709Z,6.50
2019-05-06T04:18:03.886Z,5.50
2019-05-06T04:23:18.568Z,6.80
2019-05-06T04:28:24.720Z,3.97
2019-05-06T04:33:27.945Z,3.77
2019-05-06T04:38:33.519Z,3.40
2019-05-06T04:43:35.881Z,3.33
2019-05-06T04:48:38.896Z,2.63
2019-05-06T04:53:44.112Z,3.40
2019-05-06T04:58:48.146Z,3.60
2019-05-06T05:03:53.874Z,3.77
2019-05-06T05:08:56.129Z,3.50
2019-05-06T05:14:26.049Z,3.40
2019-05-06T05:19:32.781Z,3.47
2019-05-06T05:24:37.067Z,3.57
2019-05-06T05:29:42.434Z,3.30
2019-05-06T05:34:46.368Z,3.43
2019-05-06T05:39:49.175Z,2.70
2019-05-06T05:44:53.819Z,3.30
2019-05-06T05:50:26.435Z,3.10
2019-05-06T05:55:29.589Z,3.40
2019-05-06T06:00:34.130Z,2.13
2019-05-06T06:05:37.671Z,2.13
2019-05-06T06:11:12.296Z,1.87
2019-05-06T06:16:34.941Z,1.60
2019-05-06T06:21:42.827Z,2.33
2019-05-06T06:26:46.626Z,1.97
2019-05-06T06:32:09.834Z,1.80
2019-05-06T06:37:42.617Z,1.30
2019-05-06T06:42:49.858Z,1.47
2019-05-06T06:47:52.915Z,2.10
2019-05-06T06:52:55.837Z,2.27
2019-05-06T06:58:25.261Z,3.20
2019-05-06T07:03:35.231Z,2.07
2019-05-06T07:08:38.003Z,2.10
2019-05-06T07:13:49.130Z,2.10
2019-05-06T07:18:52.614Z,2.70
2019-05-06T07:23:55.880Z,1.97
2019-05-06T07:29:03.265Z,2.10
2019-05-06T07:34:04.660Z,2.40
2019-05-06T07:39:07.698Z,3.27
2019-05-06T07:44:36.647Z,2.63
2019-05-06T07:49:39.544Z,2.47
2019-05-06T07:54:42.681Z,3.00
2019-05-06T07:59:45.766Z,2.27
2019-05-06T08:04:49.342Z,2.67
2019-05-06T08:09:53.038Z,1.90
2019-05-06T08:14:56.133Z,2.37
2019-05-06T08:19:59.319Z,1.77
2019-05-06T08:25:03.376Z,1.80
2019-05-06T08:30:08.353Z,1.43
2019-05-06T08:35:13.377Z,2.50
2019-05-06T08:40:16.836Z,2.00
2019-05-06T08:45:21.950Z,2.03
2019-05-06T08:50:34.128Z,2.00
2019-05-06T08:55:38.586Z,1.43
2019-05-06T09:00:49.518Z,1.70
2019-05-06T09:05:55.051Z,1.77
2019-05-06T09:10:58.253Z,2.37
2019-05-06T09:16:02.475Z,1.90
2019-05-06T09:21:06.168Z,2.40
2019-05-06T09:26:12.993Z,2.00
2019-05-06T09:31:42.729Z,1.83
2019-05-06T09:36:51.843Z,1.23
2019-05-06T09:41:57.777Z,1.40
2019-05-06T09:46:57.648Z,1.30
2019-05-06T09:52:02.483Z,1.37
2019-05-06T09:57:09.709Z,1.67
2019-05-06T10:02:12.831Z,1.30
2019-05-06T10:07:15.679Z,1.10
2019-05-06T10:12:18.920Z,1.30
2019-05-06T10:17:22.176Z,1.23
2019-05-06T10:22:25.621Z,1.30
2019-05-06T10:27:28.888Z,1.63
2019-05-06T10:32:58.022Z,1.30
2019-05-06T10:38:23.006Z,1.10
2019-05-06T10:43:35.722Z,1.20
2019-05-06T10:48:38.617Z,1.40
2019-05-06T10:53:42.456Z,1.97
2019-05-06T10:58:45.558Z,1.70
2019-05-06T11:03:48.705Z,1.43
2019-05-06T11:08:52.509Z,2.40
2019-05-06T11:13:57.490Z,2.30
2019-05-06T11:19:02.527Z,2.17
2019-05-06T11:24:06.273Z,2.53
2019-05-06T11:29:15.424Z,2.17
2019-05-06T11:34:42.060Z,2.17
2019-05-06T11:39:47.419Z,1.87
2019-05-06T11:44:52.902Z,2.57
2019-05-06T11:49:57.187Z,2.03
2019-05-06T11:55:02.179Z,1.30
2019-05-06T12:00:07.125Z,1.90
2019-05-06T12:05:10.260Z,1.40
2019-05-06T12:10:13.611Z,1.43
2019-05-06T12:15:16.741Z,1.90
2019-05-06T12:20:22.103Z,1.73
2019-05-06T12:25:24.845Z,1.63
2019-05-06T12:30:28.423Z,1.87
2019-05-06T12:35:32.226Z,2.17
2019-05-06T12:40:35.931Z,1.47
2019-05-06T12:45:43.042Z,1.57
2019-05-06T12:50:45.573Z,2.50
2019-05-06T12:55:48.365Z,1.60
2019-05-06T13:00:54.189Z,1.40
2019-05-06T13:05:57.131Z,1.90
2019-05-06T13:11:02.446Z,1.63
2019-05-06T13:16:05.985Z,1.50
2019-05-06T13:21:09.538Z,2.87
2019-05-06T13:26:13.002Z,1.70
2019-05-06T13:31:21.339Z,1.60
2019-05-06T13:36:22.631Z,1.77
2019-05-06T13:41:25.744Z,2.10
2019-05-06T13:46:33.511Z,2.20
2019-05-06T13:51:37.287Z,1.40
2019-05-06T13:56:42.552Z,1.30
2019-05-06T14:02:06.669Z,1.00
2019-05-06T14:07:07.506Z,1.10
2019-05-06T14:12:10.361Z,1.50
2019-05-06T14:17:13.909Z,1.70
2019-05-06T14:22:17.299Z,1.30
2019-05-06T14:27:22.157Z,1.67
2019-05-06T14:32:25.739Z,1.40
2019-05-06T14:37:28.974Z,1.00
2019-05-06T14:42:33.020Z,1.23
2019-05-06T14:47:38.081Z,1.50
2019-05-06T14:52:42.642Z,0.80
2019-05-06T14:57:46.373Z,1.23
2019-05-06T15:02:49.572Z,2.17
2019-05-06T15:07:53.059Z,1.50
2019-05-06T15:12:56.264Z,1.90
2019-05-06T15:17:59.039Z,1.53
2019-05-06T15:23:04.367Z,1.87
2019-05-06T15:28:06.954Z,1.93
2019-05-06T15:33:13.608Z,1.50
2019-05-06T15:38:23.601Z,1.73
2019-05-06T15:43:26.610Z,1.50
2019-05-06T15:48:29.840Z,2.17
2019-05-06T15:53:33.330Z,2.07
2019-05-06T15:58:37.175Z,1.67
2019-05-06T16:03:43.145Z,1.87
2019-05-06T16:08:46.059Z,1.75
2019-05-06T16:13:48.959Z,1.87
2019-05-06T16:18:51.963Z,2.20
2019-05-06T16:24:02.450Z,1.80
2019-05-06T16:29:06.251Z,1.70
2019-05-06T16:34:12.411Z,1.70
2019-05-06T16:39:15.372Z,1.63
2019-05-06T16:44:18.969Z,2.23
2019-05-06T16:49:23.068Z,2.03
2019-05-06T16:54:27.062Z,1.53
2019-05-06T16:59:30.271Z,1.70
2019-05-06T17:04:58.327Z,1.67
2019-05-06T17:10:03.452Z,1.60
2019-05-06T17:15:07.602Z,2.03
2019-05-06T17:20:12.216Z,1.93
2019-05-06T17:25:15.081Z,1.20
2019-05-06T17:30:44.019Z,1.53
2019-05-06T17:35:46.813Z,1.50
2019-05-06T17:40:52.430Z,1.70
2019-05-06T17:46:02.583Z,1.80
2019-05-06T17:51:16.852Z,2.40
2019-05-06T17:56:31.507Z,2.70
2019-05-06T18:01:38.099Z,1.70
2019-05-06T18:06:46.127Z,2.10
2019-05-06T18:11:58.586Z,1.73
2019-05-06T18:16:59.902Z,2.40
2019-05-06T18:22:04.385Z,2.07
2019-05-06T18:27:07.991Z,2.37
2019-05-06T18:32:12.671Z,2.60
2019-05-06T18:37:15.427Z,2.07
2019-05-06T18:42:20.410Z,2.83
2019-05-06T18:47:24.406Z,2.20
2019-05-06T18:52:28.160Z,3.03
2019-05-06T18:57:32.804Z,2.77
2019-05-06T19:02:37.077Z,2.20
2019-05-06T19:07:40.643Z,3.47
2019-05-06T19:12:45.813Z,2.57
2019-05-06T19:17:49.376Z,2.47
2019-05-06T19:22:53.575Z,2.13
2019-05-06T19:27:57.397Z,2.40
2019-05-06T19:33:02.944Z,2.50
2019-05-06T19:38:06.621Z,2.33
2019-05-06T19:43:09.689Z,2.77
2019-05-06T19:48:13.548Z,3.10
2019-05-06T19:53:16.535Z,2.80
2019-05-06T19:58:19.618Z,2.20
2019-05-06T20:03:23.187Z,2.73
2019-05-06T20:08:34.002Z,2.20
2019-05-06T20:13:37.339Z,2.23
2019-05-06T20:18:43.377Z,2.80
2019-05-06T20:23:46.105Z,1.90
2019-05-06T20:28:49.924Z,2.20
2019-05-06T20:33:53.154Z,2.10
2019-05-06T20:38:56.042Z,2.60
2019-05-06T20:43:58.929Z,2.60
2019-05-06T20:49:02.773Z,1.90
2019-05-06T20:54:07.515Z,2.07
2019-05-06T20:59:13.811Z,1.50
2019-05-06T21:04:17.499Z,2.43
2019-05-06T21:09:23.118Z,2.57
2019-05-06T21:14:25.770Z,1.60
2019-05-06T21:19:29.194Z,2.90
2019-05-06T21:24:33.286Z,2.60
2019-05-06T21:29:36.680Z,1.87
2019-05-06T21:34:40.348Z,1.97
2019-05-06T21:39:44.894Z,1.83
2019-05-06T21:44:48.118Z,1.60
2019-05-06T21:49:52.865Z,1.43
2019-05-06T21:54:55.382Z,2.47
2019-05-06T21:59:58.748Z,2.07
2019-05-06T22:05:02.744Z,2.03
2019-05-06T22:10:06.279Z,2.17
2019-05-06T22:15:11.746Z,2.00
2019-05-06T22:20:14.463Z,2.30
2019-05-06T22:25:21.961Z,1.80
2019-05-06T22:30:24.673Z,1.90
2019-05-06T22:35:27.883Z,3.10
2019-05-06T22:40:32.759Z,2.27
2019-05-06T22:45:35.998Z,1.70
2019-05-06T22:50:38.841Z,3.13
2019-05-06T22:55:42.828Z,2.60
2019-05-06T23:00:49.843Z,1.80
2019-05-06T23:05:53.387Z,2.30
2019-05-06T23:10:56.932Z,2.10
2019-05-06T23:16:01.999Z,2.03
2019-05-06T23:21:04.857Z,2.57
2019-05-06T23:26:19.079Z,3.17
2019-05-06T23:31:24.454Z,2.03
2019-05-06T23:36:32.520Z,2.10
2019-05-06T23:42:12.386Z,2.25
2019-05-06T23:47:53.143Z,2.40
2019-05-06T23:53:32.658Z,1.50
2019-05-06T23:58:36.127Z,1.63
